Tulsa, OK (74135)

11:14 PM CDT on September 04, 2015 (GMT -0500)
36th & Harvard Ave | | Change Station
CLOSE
Current Station
Personal Weather Station
Location: Tulsa, OK
Elevation: 748 ft
Nearby Weather Stations

Elev 748 ft 36.11 °N, 95.94 °W | Updated 4 minutes ago

Clear
Clear
82.8 °F
Feels Like 88 °F
N
4.5
Wind Variable Wind from West
Gusts 4.5 mph

Today
High -- | Low -- °F
--% Chance of Precip.
Yesterday
High -- | Low -- °F
Precip. -- in
6:57 AM 7:47 PM
Waning Gibbous, 53% visible
Pressure 29.96 in
Visibility 10.0 miles
Clouds Clear
Heat Index 88 °F
Dew Point 72 °F
Humidity 71%
Rainfall 0.00 in
Snow Depth Not available.
UV 0 out of 12
Pollen 10.20 out of 12
Air Quality Not available.
Flu Activity Not available.
METAR KRVS 050353Z AUTO 00000KT 10SM CLR 28/22 A2995 RMK AO2 SLP145 T02830217
Pressure 29.96 in
Visibility 10.0 miles
Clouds Clear
Heat Index 88 °F
Dew Point 72 °F
Humidity 71%
Rainfall 0.00 in
Snow Depth Not available.
UV 0 out of 12
Pollen 10.20 out of 12
Air Quality Not available.
Flu Activity Not available.
METAR KRVS 050353Z AUTO 00000KT 10SM CLR 28/22 A2995 RMK AO2 SLP145 T02830217

10-Day Weather Forecast

×

Almanac

Astronomy

Sep. 04, 2015 Rise Set
Actual Time
Civil Twilight
Nautical Twilight
Astronomical Twilight
Moon
Length of Visible Light
Length of Day
Tomorrow will be .
, % of the Moon is Illuminated

Today's Extremes

State Highs State Lows

Community

WunderPhotos

Upload Photos

1,852,419 photos uploaded!

WunderBlogs® & News

Nearby

Air Quality

  Air Quality AQ Index Pollutant
Not available.

Snow Depth

Station Depth Elevation

Earthquake Activity

City Distance Mag. Time & Date
Minimum magnitude displayed is 2.5.

Coastal Water Temperatures

Place Temperature

Stations

Nearby Weather Stations

Station Location Temp. Windchill Dew Point Humidity Wind Precip. Elev Updated Type